sensor_id;sensor_type;location;lat;lon;timestamp;pressure;altitude;pressure_sealevel;temperature;humidity
31121;BME280;17770;45.966;13.632;2023-02-20T00:01:55;101487.97;;;15.65;62.30
31121;BME280;17770;45.966;13.632;2023-02-20T00:04:21;101488.03;;;15.64;61.92
31121;BME280;17770;45.966;13.632;2023-02-20T00:06:47;101481.16;;;15.63;62.34
31121;BME280;17770;45.966;13.632;2023-02-20T00:09:13;101484.56;;;15.65;62.48
31121;BME280;17770;45.966;13.632;2023-02-20T00:11:39;101485.38;;;15.65;62.11
31121;BME280;17770;45.966;13.632;2023-02-20T00:14:05;101477.63;;;15.64;61.97
31121;BME280;17770;45.966;13.632;2023-02-20T00:16:31;101477.75;;;15.61;61.97
31121;BME280;17770;45.966;13.632;2023-02-20T00:18:56;101475.91;;;15.64;62.28
31121;BME280;17770;45.966;13.632;2023-02-20T00:21:22;101474.97;;;15.65;62.25
31121;BME280;17770;45.966;13.632;2023-02-20T00:23:48;101469.84;;;15.64;62.46
31121;BME280;17770;45.966;13.632;2023-02-20T00:26:14;101475.09;;;15.62;61.80
31121;BME280;17770;45.966;13.632;2023-02-20T00:28:41;101473.34;;;15.63;62.05
31121;BME280;17770;45.966;13.632;2023-02-20T00:31:11;101474.16;;;15.63;62.08
31121;BME280;17770;45.966;13.632;2023-02-20T00:33:37;101476.78;;;15.63;61.99
31121;BME280;17770;45.966;13.632;2023-02-20T00:36:03;101466.38;;;15.63;62.45
31121;BME280;17770;45.966;13.632;2023-02-20T00:38:29;101472.47;;;15.62;62.14
31121;BME280;17770;45.966;13.632;2023-02-20T00:40:55;101478.50;;;15.64;62.37
31121;BME280;17770;45.966;13.632;2023-02-20T00:43:20;101485.38;;;15.65;61.96
31121;BME280;17770;45.966;13.632;2023-02-20T00:45:46;101492.38;;;15.63;62.03
31121;BME280;17770;45.966;13.632;2023-02-20T00:48:12;101492.38;;;15.63;61.79
31121;BME280;17770;45.966;13.632;2023-02-20T00:50:38;101498.44;;;15.64;62.05
31121;BME280;17770;45.966;13.632;2023-02-20T00:53:04;101488.94;;;15.63;61.98
31121;BME280;17770;45.966;13.632;2023-02-20T00:55:30;101485.47;;;15.62;61.97
31121;BME280;17770;45.966;13.632;2023-02-20T00:57:56;101481.16;;;15.63;62.40
31121;BME280;17770;45.966;13.632;2023-02-20T01:00:25;101484.63;;;15.62;62.54
31121;BME280;17770;45.966;13.632;2023-02-20T01:02:51;101476.78;;;15.63;61.94
31121;BME280;17770;45.966;13.632;2023-02-20T01:05:17;101488.94;;;15.63;62.40
31121;BME280;17770;45.966;13.632;2023-02-20T01:07:44;101490.69;;;15.62;62.32
31121;BME280;17770;45.966;13.632;2023-02-20T01:10:09;101487.22;;;15.62;62.22
31121;BME280;17770;45.966;13.632;2023-02-20T01:12:35;101487.22;;;15.62;62.11
31121;BME280;17770;45.966;13.632;2023-02-20T01:15:01;101488.03;;;15.64;61.90
31121;BME280;17770;45.966;13.632;2023-02-20T01:17:27;101494.97;;;15.63;61.88
31121;BME280;17770;45.966;13.632;2023-02-20T01:19:54;101495.03;;;15.62;62.39
31121;BME280;17770;45.966;13.632;2023-02-20T01:22:20;101495.88;;;15.62;62.32
31121;BME280;17770;45.966;13.632;2023-02-20T01:24:48;101500.22;;;15.62;62.37
31121;BME280;17770;45.966;13.632;2023-02-20T01:27:14;101498.44;;;15.64;62.04
31121;BME280;17770;45.966;13.632;2023-02-20T01:29:40;101496.75;;;15.63;62.45
31121;BME280;17770;45.966;13.632;2023-02-20T01:32:06;101492.44;;;15.62;61.90
31121;BME280;17770;45.966;13.632;2023-02-20T01:34:32;101486.34;;;15.63;62.20
31121;BME280;17770;45.966;13.632;2023-02-20T01:36:58;101470.78;;;15.61;61.88
31121;BME280;17770;45.966;13.632;2023-02-20T01:39:26;101471.56;;;15.63;61.92
31121;BME280;17770;45.966;13.632;2023-02-20T01:42:02;101473.34;;;15.63;62.13
31121;BME280;17770;45.966;13.632;2023-02-20T01:44:31;101480.28;;;15.62;61.80
31121;BME280;17770;45.966;13.632;2023-02-20T01:47:05;101473.41;;;15.61;61.85
31121;BME280;17770;45.966;13.632;2023-02-20T01:49:36;101474.22;;;15.62;61.76
31121;BME280;17770;45.966;13.632;2023-02-20T01:52:07;101475.09;;;15.62;61.80
31121;BME280;17770;45.966;13.632;2023-02-20T01:54:35;101479.44;;;15.62;62.15
31121;BME280;17770;45.966;13.632;2023-02-20T01:57:03;101486.34;;;15.63;61.74
31121;BME280;17770;45.966;13.632;2023-02-20T01:59:33;101480.28;;;15.62;62.20
31121;BME280;17770;45.966;13.632;2023-02-20T02:02:01;101482.03;;;15.62;62.26
31121;BME280;17770;45.966;13.632;2023-02-20T02:04:26;101482.94;;;15.61;62.37
31121;BME280;17770;45.966;13.632;2023-02-20T02:06:53;101489.88;;;15.60;61.82
31121;BME280;17770;45.966;13.632;2023-02-20T02:10:03;101491.66;;;15.60;61.95
31121;BME280;17770;45.966;13.632;2023-02-20T02:12:08;101495.88;;;15.62;61.82
31121;BME280;17770;45.966;13.632;2023-02-20T02:14:35;101499.44;;;15.60;62.17
31121;BME280;17770;45.966;13.632;2023-02-20T02:17:23;101495.13;;;15.59;62.13
31121;BME280;17770;45.966;13.632;2023-02-20T02:25:12;101493.34;;;15.61;62.16
31121;BME280;17770;45.966;13.632;2023-02-20T02:43:18;101504.56;;;15.63;61.93
31121;BME280;17770;45.966;13.632;2023-02-20T02:48:25;101503.75;;;15.61;61.89
31121;BME280;17770;45.966;13.632;2023-02-20T02:50:53;101505.47;;;15.60;62.11
31121;BME280;17770;45.966;13.632;2023-02-20T02:53:21;101498.59;;;15.59;62.21
31121;BME280;17770;45.966;13.632;2023-02-20T02:55:48;101496.84;;;15.60;62.19
31121;BME280;17770;45.966;13.632;2023-02-20T02:58:14;101504.59;;;15.61;62.25
31121;BME280;17770;45.966;13.632;2023-02-20T03:00:46;101507.19;;;15.61;62.32
31121;BME280;17770;45.966;13.632;2023-02-20T03:05:54;101502.94;;;15.59;61.70
31121;BME280;17770;45.966;13.632;2023-02-20T03:08:25;101505.47;;;15.60;61.83
31121;BME280;17770;45.966;13.632;2023-02-20T03:10:56;101507.25;;;15.60;62.26
31121;BME280;17770;45.966;13.632;2023-02-20T03:13:24;101512.44;;;15.60;61.70
31121;BME280;17770;45.966;13.632;2023-02-20T03:16:09;101503.84;;;15.58;62.32
31121;BME280;17770;45.966;13.632;2023-02-20T03:18:38;101502.13;;;15.57;61.87
31121;BME280;17770;45.966;13.632;2023-02-20T03:21:13;101509.03;;;15.58;61.98
31121;BME280;17770;45.966;13.632;2023-02-20T03:23:41;101509.84;;;15.60;61.99
31121;BME280;17770;45.966;13.632;2023-02-20T03:26:22;101510.72;;;15.59;62.28
31121;BME280;17770;45.966;13.632;2023-02-20T03:28:56;101512.53;;;15.57;61.84
31121;BME280;17770;45.966;13.632;2023-02-20T03:31:38;101497.72;;;15.59;62.13
31121;BME280;17770;45.966;13.632;2023-02-20T03:34:13;101509.97;;;15.55;62.35
31121;BME280;17770;45.966;13.632;2023-02-20T03:37:06;101515.06;;;15.58;62.04
31121;BME280;17770;45.966;13.632;2023-02-20T03:39:54;101514.19;;;15.59;61.99
31121;BME280;17770;45.966;13.632;2023-02-20T03:42:44;101518.53;;;15.59;62.07
31121;BME280;17770;45.966;13.632;2023-02-20T03:45:35;101528.16;;;15.55;62.23
31121;BME280;17770;45.966;13.632;2023-02-20T03:48:06;101517.72;;;15.57;62.30
31121;BME280;17770;45.966;13.632;2023-02-20T03:50:33;101520.41;;;15.54;61.83
31121;BME280;17770;45.966;13.632;2023-02-20T03:53:00;101525.56;;;15.55;62.30
31121;BME280;17770;45.966;13.632;2023-02-20T03:55:26;101525.56;;;15.55;62.20
31121;BME280;17770;45.966;13.632;2023-02-20T03:57:54;101526.38;;;15.57;62.26
31121;BME280;17770;45.966;13.632;2023-02-20T04:00:23;101522.91;;;15.57;62.23
31121;BME280;17770;45.966;13.632;2023-02-20T04:02:52;101531.63;;;15.56;62.20
31121;BME280;17770;45.966;13.632;2023-02-20T04:05:25;101533.28;;;15.58;62.28
31121;BME280;17770;45.966;13.632;2023-02-20T04:07:56;101522.91;;;15.57;62.20
31121;BME280;17770;45.966;13.632;2023-02-20T04:10:26;101526.44;;;15.56;61.71
31121;BME280;17770;45.966;13.632;2023-02-20T04:12:53;101526.38;;;15.57;61.86
31121;BME280;17770;45.966;13.632;2023-02-20T04:15:20;101528.06;;;15.58;62.32
31121;BME280;17770;45.966;13.632;2023-02-20T04:17:54;101530.78;;;15.55;62.25
31121;BME280;17770;45.966;13.632;2023-02-20T04:20:21;101530.72;;;15.57;62.09
31121;BME280;17770;45.966;13.632;2023-02-20T04:23:00;101538.53;;;15.57;62.20
31121;BME280;17770;45.966;13.632;2023-02-20T04:28:07;101542.03;;;15.56;62.23
31121;BME280;17770;45.966;13.632;2023-02-20T04:30:44;101544.69;;;15.54;62.12
31121;BME280;17770;45.966;13.632;2023-02-20T04:33:11;101546.41;;;15.54;62.26
31121;BME280;17770;45.966;13.632;2023-02-20T04:35:38;101543.81;;;15.54;61.98
31121;BME280;17770;45.966;13.632;2023-02-20T04:38:04;101549.03;;;15.54;62.23
31121;BME280;17770;45.966;13.632;2023-02-20T04:40:30;101552.47;;;15.54;61.75
31121;BME280;17770;45.966;13.632;2023-02-20T04:42:56;101544.63;;;15.56;61.93
31121;BME280;17770;45.966;13.632;2023-02-20T04:45:22;101556.00;;;15.52;62.22
31121;BME280;17770;45.966;13.632;2023-02-20T04:47:48;101559.53;;;15.51;62.30
31121;BME280;17770;45.966;13.632;2023-02-20T04:50:25;101560.34;;;15.53;61.88
31121;BME280;17770;45.966;13.632;2023-02-20T04:52:52;101556.00;;;15.53;62.22
31121;BME280;17770;45.966;13.632;2023-02-20T04:55:18;101563.78;;;15.53;61.64
31121;BME280;17770;45.966;13.632;2023-02-20T04:57:46;101557.72;;;15.53;62.26
31121;BME280;17770;45.966;13.632;2023-02-20T05:00:12;101560.34;;;15.53;62.29
31121;BME280;17770;45.966;13.632;2023-02-20T05:02:38;101559.47;;;15.52;62.33
31121;BME280;17770;45.966;13.632;2023-02-20T05:05:05;101562.06;;;15.52;61.73
31121;BME280;17770;45.966;13.632;2023-02-20T05:07:32;101566.47;;;15.50;62.16
31121;BME280;17770;45.966;13.632;2023-02-20T05:09:59;101556.06;;;15.50;62.40
31121;BME280;17770;45.966;13.632;2023-02-20T05:12:24;101564.72;;;15.51;62.13
31121;BME280;17770;45.966;13.632;2023-02-20T05:14:50;101559.53;;;15.51;62.27
31121;BME280;17770;45.966;13.632;2023-02-20T05:17:16;101560.38;;;15.51;62.21
31121;BME280;17770;45.966;13.632;2023-02-20T05:19:42;101563.03;;;15.50;62.07
31121;BME280;17770;45.966;13.632;2023-02-20T05:22:09;101561.31;;;15.49;61.87
31121;BME280;17770;45.966;13.632;2023-02-20T05:24:45;101575.13;;;15.51;61.97
31121;BME280;17770;45.966;13.632;2023-02-20T05:27:11;101576.03;;;15.50;62.20
31121;BME280;17770;45.966;13.632;2023-02-20T05:29:43;101578.63;;;15.50;61.98
31121;BME280;17770;45.966;13.632;2023-02-20T05:32:09;101589.03;;;15.50;61.91
31121;BME280;17770;45.966;13.632;2023-02-20T05:34:35;101586.47;;;15.48;61.74
31121;BME280;17770;45.966;13.632;2023-02-20T05:37:01;101589.91;;;15.49;61.91
31121;BME280;17770;45.966;13.632;2023-02-20T05:39:26;101589.06;;;15.48;61.80
31121;BME280;17770;45.966;13.632;2023-02-20T05:41:52;101589.09;;;15.47;61.78
31121;BME280;17770;45.966;13.632;2023-02-20T05:44:18;101589.09;;;15.47;62.07
31121;BME280;17770;45.966;13.632;2023-02-20T05:46:44;101590.00;;;15.46;62.13
31121;BME280;17770;45.966;13.632;2023-02-20T05:49:10;101589.09;;;15.47;61.90
31121;BME280;17770;45.966;13.632;2023-02-20T05:51:36;101587.41;;;15.46;62.31
31121;BME280;17770;45.966;13.632;2023-02-20T05:54:02;101592.66;;;15.44;62.17
31121;BME280;17770;45.966;13.632;2023-02-20T05:56:28;101603.00;;;15.46;61.64
31121;BME280;17770;45.966;13.632;2023-02-20T05:58:54;101600.41;;;15.46;61.66
31121;BME280;17770;45.966;13.632;2023-02-20T06:01:21;101600.44;;;15.44;62.02
31121;BME280;17770;45.966;13.632;2023-02-20T06:03:47;101602.19;;;15.44;62.36
31121;BME280;17770;45.966;13.632;2023-02-20T06:06:14;101595.31;;;15.43;61.89
31121;BME280;17770;45.966;13.632;2023-02-20T06:08:40;101601.41;;;15.40;62.04
31121;BME280;17770;45.966;13.632;2023-02-20T06:11:06;101602.19;;;15.44;61.89
31121;BME280;17770;45.966;13.632;2023-02-20T06:13:32;101610.84;;;15.44;62.22
31121;BME280;17770;45.966;13.632;2023-02-20T06:15:58;101606.59;;;15.42;62.08
31121;BME280;17770;45.966;13.632;2023-02-20T06:18:24;101615.22;;;15.42;62.02
31121;BME280;17770;45.966;13.632;2023-02-20T06:20:49;101617.84;;;15.42;61.75
31121;BME280;17770;45.966;13.632;2023-02-20T06:23:15;101614.34;;;15.43;61.72
31121;BME280;17770;45.966;13.632;2023-02-20T06:25:41;101616.16;;;15.41;62.14
31121;BME280;17770;45.966;13.632;2023-02-20T06:28:07;101615.28;;;15.41;62.14
31121;BME280;17770;45.966;13.632;2023-02-20T06:30:33;101616.19;;;15.40;61.84
31121;BME280;17770;45.966;13.632;2023-02-20T06:32:59;101629.19;;;15.38;61.98
31121;BME280;17770;45.966;13.632;2023-02-20T06:35:25;101628.28;;;15.41;61.67
31121;BME280;17770;45.966;13.632;2023-02-20T06:37:51;101633.47;;;15.41;62.23
31121;BME280;17770;45.966;13.632;2023-02-20T06:40:17;101626.59;;;15.38;61.87
31121;BME280;17770;45.966;13.632;2023-02-20T06:42:43;101628.28;;;15.41;61.94
31121;BME280;17770;45.966;13.632;2023-02-20T06:45:08;101636.94;;;15.41;62.06
31121;BME280;17770;45.966;13.632;2023-02-20T06:47:36;101635.22;;;15.40;62.29
31121;BME280;17770;45.966;13.632;2023-02-20T06:50:02;101637.00;;;15.40;61.83
31121;BME280;17770;45.966;13.632;2023-02-20T06:52:28;101646.53;;;15.38;61.97
31121;BME280;17770;45.966;13.632;2023-02-20T06:54:54;101650.81;;;15.40;62.07
31121;BME280;17770;45.966;13.632;2023-02-20T06:57:20;101644.78;;;15.40;61.96
31121;BME280;17770;45.966;13.632;2023-02-20T06:59:46;101643.91;;;15.39;61.75
31121;BME280;17770;45.966;13.632;2023-02-20T07:02:14;101650.84;;;15.39;61.99
31121;BME280;17770;45.966;13.632;2023-02-20T07:04:40;101650.00;;;15.40;61.51
31121;BME280;17770;45.966;13.632;2023-02-20T07:07:06;101654.34;;;15.38;61.84
31121;BME280;17770;45.966;13.632;2023-02-20T07:09:32;101639.59;;;15.38;61.95
31121;BME280;17770;45.966;13.632;2023-02-20T07:11:57;101644.84;;;15.35;61.38
31121;BME280;17770;45.966;13.632;2023-02-20T07:14:23;101642.25;;;15.37;61.53
31121;BME280;17770;45.966;13.632;2023-02-20T07:16:49;101642.25;;;15.37;61.79
31121;BME280;17770;45.966;13.632;2023-02-20T07:19:15;101644.84;;;15.37;61.54
31121;BME280;17770;45.966;13.632;2023-02-20T07:21:41;101641.38;;;15.36;61.77
31121;BME280;17770;45.966;13.632;2023-02-20T07:24:07;101639.66;;;15.37;61.40
31121;BME280;17770;45.966;13.632;2023-02-20T07:26:33;101647.41;;;15.38;61.47
31121;BME280;17770;45.966;13.632;2023-02-20T07:29:01;101638.75;;;15.38;61.32
31121;BME280;17770;45.966;13.632;2023-02-20T07:31:27;101640.63;;;15.33;61.61
31121;BME280;17770;45.966;13.632;2023-02-20T07:33:53;101637.97;;;15.34;61.67
31121;BME280;17770;45.966;13.632;2023-02-20T07:36:19;101644.91;;;15.34;61.39
31121;BME280;17770;45.966;13.632;2023-02-20T07:38:52;101645.72;;;15.36;61.77
31121;BME280;17770;45.966;13.632;2023-02-20T07:41:18;101642.31;;;15.34;61.27
31121;BME280;17770;45.966;13.632;2023-02-20T07:43:44;101638.88;;;15.33;61.37
31121;BME280;17770;45.966;13.632;2023-02-20T07:46:11;101647.47;;;15.35;61.41
31121;BME280;17770;45.966;13.632;2023-02-20T07:48:37;101646.59;;;15.36;61.66
31121;BME280;17770;45.966;13.632;2023-02-20T07:51:02;101645.78;;;15.34;61.70
31121;BME280;17770;45.966;13.632;2023-02-20T07:53:28;101636.22;;;15.35;61.47
31121;BME280;17770;45.966;13.632;2023-02-20T07:55:54;101638.88;;;15.33;61.41
31121;BME280;17770;45.966;13.632;2023-02-20T07:58:20;101635.38;;;15.34;61.30
31121;BME280;17770;45.966;13.632;2023-02-20T08:00:46;101633.69;;;15.33;61.42
31121;BME280;17770;45.966;13.632;2023-02-20T08:03:12;101639.72;;;15.34;61.59
31121;BME280;17770;45.966;13.632;2023-02-20T08:05:38;101638.88;;;15.33;61.58
31121;BME280;17770;45.966;13.632;2023-02-20T08:08:03;101640.56;;;15.34;61.15
31121;BME280;17770;45.966;13.632;2023-02-20T08:10:29;101635.38;;;15.34;61.39
31121;BME280;17770;45.966;13.632;2023-02-20T08:12:55;101637.06;;;15.37;61.27
31121;BME280;17770;45.966;13.632;2023-02-20T08:15:21;101636.31;;;15.32;61.41
31121;BME280;17770;45.966;13.632;2023-02-20T08:17:47;101630.16;;;15.34;61.43
31121;BME280;17770;45.966;13.632;2023-02-20T08:20:14;101640.63;;;15.33;61.25
31121;BME280;17770;45.966;13.632;2023-02-20T08:22:40;101637.94;;;15.36;61.53
31121;BME280;17770;45.966;13.632;2023-02-20T08:25:06;101633.69;;;15.33;61.43
31121;BME280;17770;45.966;13.632;2023-02-20T08:27:32;101636.22;;;15.35;61.54
31121;BME280;17770;45.966;13.632;2023-02-20T08:30:03;101642.31;;;15.34;61.19
31121;BME280;17770;45.966;13.632;2023-02-20T08:32:30;101649.28;;;15.33;61.80
31121;BME280;17770;45.966;13.632;2023-02-20T08:34:55;101650.16;;;15.32;61.51
31121;BME280;17770;45.966;13.632;2023-02-20T08:37:21;101646.69;;;15.33;61.38
31121;BME280;17770;45.966;13.632;2023-02-20T08:39:47;101650.91;;;15.36;61.27
31121;BME280;17770;45.966;13.632;2023-02-20T08:42:14;101650.03;;;15.37;61.68
31121;BME280;17770;45.966;13.632;2023-02-20T08:44:39;101650.97;;;15.34;61.62
31121;BME280;17770;45.966;13.632;2023-02-20T08:47:05;101647.47;;;15.35;61.62
31121;BME280;17770;45.966;13.632;2023-02-20T08:49:31;101642.25;;;15.37;61.26
31121;BME280;17770;45.966;13.632;2023-02-20T08:51:57;101640.63;;;15.33;61.42
31121;BME280;17770;45.966;13.632;2023-02-20T08:54:23;101638.84;;;15.35;61.55
31121;BME280;17770;45.966;13.632;2023-02-20T08:56:48;101638.78;;;15.36;61.58
31121;BME280;17770;45.966;13.632;2023-02-20T08:59:14;101632.69;;;15.37;61.26
31121;BME280;17770;45.966;13.632;2023-02-20T09:01:40;101642.25;;;15.37;61.05
31121;BME280;17770;45.966;13.632;2023-02-20T09:04:07;101642.25;;;15.37;61.73
31121;BME280;17770;45.966;13.632;2023-02-20T09:06:33;101640.53;;;15.36;61.69
31121;BME280;17770;45.966;13.632;2023-02-20T09:08:59;101634.44;;;15.37;61.68
31121;BME280;17770;45.966;13.632;2023-02-20T09:11:25;101636.19;;;15.36;61.33
31121;BME280;17770;45.966;13.632;2023-02-20T09:13:51;101632.72;;;15.36;61.38
31121;BME280;17770;45.966;13.632;2023-02-20T09:16:21;101633.53;;;15.38;61.56
31121;BME280;17770;45.966;13.632;2023-02-20T09:18:47;101631.81;;;15.38;61.64
31121;BME280;17770;45.966;13.632;2023-02-20T09:21:15;101638.72;;;15.39;61.59
31121;BME280;17770;45.966;13.632;2023-02-20T09:23:42;101637.88;;;15.37;61.31
31121;BME280;17770;45.966;13.632;2023-02-20T09:26:08;101638.72;;;15.39;61.27
31121;BME280;17770;45.966;13.632;2023-02-20T09:28:34;101637.88;;;15.39;61.56
31121;BME280;17770;45.966;13.632;2023-02-20T09:30:59;101637.88;;;15.39;61.61
31121;BME280;17770;45.966;13.632;2023-02-20T09:33:26;101629.19;;;15.40;61.42
31121;BME280;17770;45.966;13.632;2023-02-20T09:35:52;101631.81;;;15.38;61.28
31121;BME280;17770;45.966;13.632;2023-02-20T09:38:20;101637.00;;;15.40;61.68
31121;BME280;17770;45.966;13.632;2023-02-20T09:40:47;101630.06;;;15.39;61.18
31121;BME280;17770;45.966;13.632;2023-02-20T09:43:33;101628.31;;;15.39;61.48
31121;BME280;17770;45.966;13.632;2023-02-20T09:46:22;101623.16;;;15.38;61.15
31121;BME280;17770;45.966;13.632;2023-02-20T09:51:32;101612.72;;;15.39;61.43
31121;BME280;17770;45.966;13.632;2023-02-20T09:56:32;101619.66;;;15.39;61.60
31121;BME280;17770;45.966;13.632;2023-02-20T10:01:31;101612.63;;;15.42;61.40
31121;BME280;17770;45.966;13.632;2023-02-20T10:04:03;101611.81;;;15.40;61.92
31121;BME280;17770;45.966;13.632;2023-02-20T10:06:31;101618.75;;;15.41;61.42
31121;BME280;17770;45.966;13.632;2023-02-20T10:08:58;101611.00;;;15.40;61.51
31121;BME280;17770;45.966;13.632;2023-02-20T10:16:42;101613.53;;;15.41;61.75
31121;BME280;17770;45.966;13.632;2023-02-20T10:19:19;101614.34;;;15.43;61.21
31121;BME280;17770;45.966;13.632;2023-02-20T10:24:17;101617.78;;;15.44;61.12
31121;BME280;17770;45.966;13.632;2023-02-20T10:26:47;101615.19;;;15.44;61.32
31121;BME280;17770;45.966;13.632;2023-02-20T10:29:19;101607.38;;;15.44;61.66
31121;BME280;17770;45.966;13.632;2023-02-20T10:32:09;101603.09;;;15.43;61.75
31121;BME280;17770;45.966;13.632;2023-02-20T10:34:40;101605.66;;;15.44;61.37
31121;BME280;17770;45.966;13.632;2023-02-20T10:37:16;101603.09;;;15.43;61.65
31121;BME280;17770;45.966;13.632;2023-02-20T10:39:55;101599.59;;;15.44;61.41
31121;BME280;17770;45.966;13.632;2023-02-20T10:42:34;101599.59;;;15.44;61.11
31121;BME280;17770;45.966;13.632;2023-02-20T10:47:38;101596.06;;;15.46;61.25
31121;BME280;17770;45.966;13.632;2023-02-20T10:50:18;101591.69;;;15.48;61.63
31121;BME280;17770;45.966;13.632;2023-02-20T10:55:18;101586.50;;;15.47;61.50
31121;BME280;17770;45.966;13.632;2023-02-20T10:58:00;101583.88;;;15.48;61.48
31121;BME280;17770;45.966;13.632;2023-02-20T11:02:59;101576.97;;;15.47;61.85
31121;BME280;17770;45.966;13.632;2023-02-20T11:05:30;101574.31;;;15.49;61.55
31121;BME280;17770;45.966;13.632;2023-02-20T11:07:57;101569.16;;;15.47;61.99
31121;BME280;17770;45.966;13.632;2023-02-20T11:10:24;101566.56;;;15.47;61.69
31121;BME280;17770;45.966;13.632;2023-02-20T11:12:50;101561.34;;;15.47;61.53
31121;BME280;17770;45.966;13.632;2023-02-20T11:15:19;101563.09;;;15.48;62.19
31121;BME280;17770;45.966;13.632;2023-02-20T11:17:47;101552.63;;;15.50;62.15
31121;BME280;17770;45.966;13.632;2023-02-20T11:23:00;101537.91;;;15.49;62.20
31121;BME280;17770;45.966;13.632;2023-02-20T11:28:40;101534.44;;;15.50;61.93
31121;BME280;17770;45.966;13.632;2023-02-20T11:30:41;101530.06;;;15.50;62.48
31121;BME280;17770;45.966;13.632;2023-02-20T11:33:18;101529.22;;;15.50;62.13
31121;BME280;17770;45.966;13.632;2023-02-20T11:35:46;101531.84;;;15.50;62.08
31121;BME280;17770;45.966;13.632;2023-02-20T11:40:42;101528.31;;;15.51;62.56
31121;BME280;17770;45.966;13.632;2023-02-20T11:45:39;101519.63;;;15.52;62.33
31121;BME280;17770;45.966;13.632;2023-02-20T11:48:09;101511.81;;;15.52;62.24
31121;BME280;17770;45.966;13.632;2023-02-20T11:50:36;101519.63;;;15.52;62.28
31121;BME280;17770;45.966;13.632;2023-02-20T11:53:03;101513.59;;;15.51;62.92
31121;BME280;17770;45.966;13.632;2023-02-20T11:55:30;101510.94;;;15.53;62.74
31121;BME280;17770;45.966;13.632;2023-02-20T11:57:56;101512.66;;;15.52;62.60
31121;BME280;17770;45.966;13.632;2023-02-20T12:00:23;101501.41;;;15.53;63.13
31121;BME280;17770;45.966;13.632;2023-02-20T12:02:50;101510.88;;;15.54;62.97
31121;BME280;17770;45.966;13.632;2023-02-20T12:05:17;101512.56;;;15.55;62.58
31121;BME280;17770;45.966;13.632;2023-02-20T12:12:51;101509.91;;;15.57;62.77
31121;BME280;17770;45.966;13.632;2023-02-20T12:15:18;101516.84;;;15.58;63.13
31121;BME280;17770;45.966;13.632;2023-02-20T12:20:17;101521.13;;;15.59;62.86
31121;BME280;17770;45.966;13.632;2023-02-20T12:31:00;101510.63;;;15.62;63.09
31121;BME280;17770;45.966;13.632;2023-02-20T12:38:47;101504.44;;;15.66;63.34
31121;BME280;17770;45.966;13.632;2023-02-20T12:48:51;101492.19;;;15.70;63.85
31121;BME280;17770;45.966;13.632;2023-02-20T12:53:51;101485.19;;;15.72;63.98
31121;BME280;17770;45.966;13.632;2023-02-20T12:59:13;101485.97;;;15.74;63.86
31121;BME280;17770;45.966;13.632;2023-02-20T13:01:33;101482.50;;;15.75;63.58
31121;BME280;17770;45.966;13.632;2023-02-20T13:04:02;101473.78;;;15.76;64.16
31121;BME280;17770;45.966;13.632;2023-02-20T13:06:43;101485.00;;;15.78;63.90
31121;BME280;17770;45.966;13.632;2023-02-20T13:11:40;101485.84;;;15.78;64.45
31121;BME280;17770;45.966;13.632;2023-02-20T13:16:40;101470.13;;;15.81;64.32
31121;BME280;17770;45.966;13.632;2023-02-20T13:21:41;101476.97;;;15.84;64.73
31121;BME280;17770;45.966;13.632;2023-02-20T13:26:48;101473.44;;;15.86;64.41
31121;BME280;17770;45.966;13.632;2023-02-20T13:31:42;101475.06;;;15.89;65.04
31121;BME280;17770;45.966;13.632;2023-02-20T13:41:55;101452.41;;;15.92;64.39
31121;BME280;17770;45.966;13.632;2023-02-20T13:55:18;101460.84;;;15.99;65.40
31121;BME280;17770;45.966;13.632;2023-02-20T14:02:46;101458.16;;;16.02;65.67
31121;BME280;17770;45.966;13.632;2023-02-20T14:05:17;101451.19;;;16.02;64.89
31121;BME280;17770;45.966;13.632;2023-02-20T14:07:43;101445.94;;;16.04;65.26
31121;BME280;17770;45.966;13.632;2023-02-20T14:10:15;101458.06;;;16.05;65.77
31121;BME280;17770;45.966;13.632;2023-02-20T14:12:41;101455.41;;;16.06;65.10
31121;BME280;17770;45.966;13.632;2023-02-20T14:15:07;101445.81;;;16.07;64.64
31121;BME280;17770;45.966;13.632;2023-02-20T14:17:34;101449.28;;;16.07;64.98
31121;BME280;17770;45.966;13.632;2023-02-20T14:20:06;101445.78;;;16.08;66.02
31121;BME280;17770;45.966;13.632;2023-02-20T14:22:40;101446.56;;;16.10;64.73
31121;BME280;17770;45.966;13.632;2023-02-20T14:25:22;101448.28;;;16.11;65.42
31121;BME280;17770;45.966;13.632;2023-02-20T14:27:49;101449.97;;;16.12;65.69
31121;BME280;17770;45.966;13.632;2023-02-20T14:30:19;101443.03;;;16.13;63.94
31121;BME280;17770;45.966;13.632;2023-02-20T14:32:50;101439.47;;;16.15;65.04
31121;BME280;17770;45.966;13.632;2023-02-20T14:37:55;101440.25;;;16.17;65.92
31121;BME280;17770;45.966;13.632;2023-02-20T14:42:50;101431.47;;;16.20;65.71
31121;BME280;17770;45.966;13.632;2023-02-20T14:45:18;101428.84;;;16.21;65.77
31121;BME280;17770;45.966;13.632;2023-02-20T14:47:49;101432.28;;;16.22;65.33
31121;BME280;17770;45.966;13.632;2023-02-20T14:52:46;101419.22;;;16.23;65.89
31121;BME280;17770;45.966;13.632;2023-02-20T14:55:24;101418.31;;;16.24;65.40
31121;BME280;17770;45.966;13.632;2023-02-20T14:57:51;101425.22;;;16.25;65.12
31121;BME280;17770;45.966;13.632;2023-02-20T15:02:45;101416.56;;;16.25;64.08
31121;BME280;17770;45.966;13.632;2023-02-20T15:05:13;101424.28;;;16.28;65.43
31121;BME280;17770;45.966;13.632;2023-02-20T15:07:43;101416.47;;;16.28;64.79
31121;BME280;17770;45.966;13.632;2023-02-20T15:12:58;101412.03;;;16.30;65.10